Latest Weather Observations for Brisbane Airport

IDQ60901

Issued at 6:41 pm EST Saturday 1 October 2016 (issued every 10 minutes, with the page automatically refreshed every 10 minutes)

About weather observations | Map of Brisbane area stations | Latest observations for Brisbane area | Other Formats
Station Details ID: 040842 Name: BRISBANE AERO Lat: -27.39 Lon: 153.13 Height: 4.51 m
Data from the previous 72 hours. | See also: Recent months at Brisbane Airport
Date/Time
EST
Temp
°C
App
Temp
°C
Dew
Point
°C
Rel
Hum
%
Delta-T
°C
Wind Press
QNH
hPa
Press
MSL
hPa
Rain since
9am
mm
Dir  Spd
km/h
Gust
km/h
Spd
kts
Gust
kts
01/06:30pm 22.0 17.3 0.7 24 9.7 W 15 24 8 13 1012.3 1012.3 0.0
01/06:00pm 23.4 17.6 -0.2 21 10.7 W 20 26 11 14 1011.9 1011.9 0.0
01/05:30pm 24.6 18.6 -1.7 17 11.7 WNW 20 28 11 15 1011.4 1011.4 0.0
01/05:00pm 25.4 18.6 -2.0 16 12.2 W 24 33 13 18 1011.1 1011.1 0.0
01/04:30pm 26.0 18.2 -1.0 17 12.3 WNW 30 39 16 21 1010.7 1010.7 0.0
01/04:00pm 26.4 19.0 -0.4 17 12.4 W 28 33 15 18 1010.5 1010.5 0.0
01/03:30pm 26.5 18.3 -1.1 16 12.6 W 32 41 17 22 1010.3 1010.3 0.0
01/03:00pm 26.7 18.9 -1.0 16 12.7 WNW 30 43 16 23 1010.3 1010.3 0.0
01/02:30pm 26.7 19.6 1.4 19 12.1 WNW 28 35 15 19 1010.4 1010.4 0.0
01/02:00pm 26.7 20.5 2.2 20 11.9 W 24 41 13 22 1010.6 1010.6 0.0
01/01:30pm 26.0 18.0 0.7 19 11.9 WSW 32 46 17 25 1011.1 1011.1 0.0
01/01:00pm 25.7 18.8 0.4 19 11.8 WNW 26 37 14 20 1011.2 1011.2 0.0
01/12:30pm 24.9 17.9 2.1 22 10.9 W 28 41 15 22 1011.4 1011.4 0.0
01/12:00pm 24.7 18.0 3.5 25 10.4 W 28 37 15 20 1011.6 1011.6 0.0
01/11:30am 24.2 18.5 2.9 25 10.3 WSW 22 33 12 18 1012.2 1012.2 0.0
01/11:02am 23.6 16.6 1.7 23 10.3 WSW 28 46 15 25 1012.6 1012.6 0.0
01/11:00am 23.1 16.2 0.3 22 10.4 WSW 26 39 14 21 1012.7 1012.7 0.0
01/10:30am 22.9 15.1 1.4 24 10.0 WSW 32 44 17 24 1013.0 1013.0 0.0
01/10:14am 22.2 13.6 0.4 23 9.9 WSW 35 46 19 25 1013.1 1013.1 0.0
01/10:00am 22.2 13.4 1.1 24 9.7 W 37 48 20 26 1013.5 1013.5 0.0
01/09:30am 21.7 12.7 0.1 23 9.7 WSW 37 50 20 27 1013.3 1013.3 0.0
01/09:00am 21.4 13.2 0.3 24 9.5 W 33 43 18 23 1013.3 1013.3 0.0
01/08:30am 20.7 12.6 0.0 25 9.2 WSW 32 43 17 23 1013.5 1013.5 0.0
01/08:00am 19.5 14.9 3.7 35 7.5 NW 17 22 9 12 1013.4 1013.4 0.0
01/07:30am 18.5 13.7 2.6 34 7.3 NW 17 22 9 12 1013.0 1013.0 0.0
01/07:00am 17.3 12.6 3.2 39 6.5 WNW 17 26 9 14 1012.6 1012.6 0.0
01/06:30am 15.9 11.7 3.8 44 5.6 WSW 15 19 8 10 1012.1 1012.1 0.0
01/06:00am 12.9 8.4 4.1 55 4.0 WSW 17 19 9 10 1011.7 1011.7 0.0
01/05:30am 11.1 6.2 3.9 61 3.2 WSW 19 22 10 12 1011.4 1011.4 0.0
01/05:00am 13.4 8.7 3.4 50 4.5 W 17 22 9 12 1011.1 1011.1 0.0
01/04:30am 11.3 8.1 4.9 65 2.9 N 11 13 6 7 1011.0 1011.0 0.0
01/04:00am 11.1 7.8 4.4 63 3.0 NNW 11 17 6 9 1010.6 1010.6 0.0
01/03:30am 10.7 7.5 5.0 68 2.6 N 11 13 6 7 1010.6 1010.6 0.0
01/03:00am 14.5 10.9 3.2 46 5.1 NNW 11 15 6 8 1010.1 1010.1 0.0
01/02:30am 13.4 10.5 4.7 55 4.0 W 9 13 5 7 1010.2 1010.2 0.0
01/02:00am 12.2 9.9 5.5 63 3.1 NNW 7 13 4 7 1010.2 1010.2 0.0
01/01:30am 13.7 9.6 4.3 53 4.3 W 15 15 8 8 1010.2 1010.2 0.0
01/01:00am 13.7 10.8 4.9 55 4.1 WNW 9 15 5 8 1010.2 1010.2 0.0
01/12:30am 13.5 9.9 5.1 57 3.9 NNW 13 19 7 10 1010.4 1010.4 0.0
01/12:00am 12.5 9.3 4.9 60 3.5 N 11 13 6 7 1010.4 1010.4 0.0
 
Date/Time
EST
Temp
°C
App
Temp
°C
Dew
Point
°C
Rel
Hum
%
Delta-T
°C
Wind Press
QNH
hPa
Press
MSL
hPa
Rain since
9am
mm
Dir  Spd
km/h
Gust
km/h
Spd
kts
Gust
kts
30/11:30pm 16.4 13.3 3.4 42 6.0 WNW 9 15 5 8 1010.2 1010.2 0.0
30/11:00pm 16.5 12.9 2.9 40 6.2 WNW 11 15 6 8 1010.2 1010.2 0.0
30/10:30pm 17.2 12.8 2.8 38 6.6 W 15 19 8 10 1010.5 1010.5 0.0
30/10:00pm 14.9 12.0 4.9 51 4.7 N 9 11 5 6 1010.7 1010.7 0.0
30/09:30pm 17.5 13.0 2.0 35 7.0 W 15 19 8 10 1010.2 1010.2 0.0
30/09:00pm 17.5 12.6 2.0 35 7.0 WSW 17 22 9 12 1010.0 1010.0 0.0
30/08:30pm 18.4 14.1 1.2 31 7.7 W 13 17 7 9 1009.8 1009.8 0.0
30/08:00pm 18.9 14.8 2.1 32 7.7 WNW 13 19 7 10 1009.4 1009.4 0.0
30/07:30pm 19.3 15.8 1.1 29 8.2 W 9 17 5 9 1008.9 1008.9 0.0
30/07:00pm 19.7 11.6 0.0 26 8.7 WSW 32 37 17 20 1008.0 1008.0 0.0
30/06:30pm 20.0 12.7 0.2 26 8.8 WSW 28 37 15 20 1007.8 1007.8 0.0
30/06:00pm 21.1 13.0 -0.6 23 9.6 WSW 32 50 17 27 1007.0 1007.0 0.0
30/05:56pm 21.2 13.3 -1.2 22 9.8 WSW 30 50 16 27 1006.9 1006.9 0.0
30/05:30pm 22.0 15.4 -0.3 22 10.0 W 24 32 13 17 1006.3 1006.3 0.0
30/05:00pm 23.3 15.3 -2.0 18 11.1 W 30 37 16 20 1005.8 1005.8 0.0
30/04:30pm 24.0 16.5 -1.7 18 11.4 W 28 37 15 20 1005.1 1005.1 0.0
30/04:24pm 24.1 15.7 -1.4 18 11.3 W 33 52 18 28 1005.1 1005.1 0.0
30/04:00pm 24.4 15.3 -3.5 15 12.0 W 35 48 19 26 1004.8 1004.8 0.0
30/03:46pm 24.8 15.8 -2.4 16 11.9 W 35 54 19 29 1004.6 1004.6 0.0
30/03:30pm 25.2 16.6 -2.3 16 12.1 W 33 46 18 25 1004.5 1004.5 0.0
30/03:23pm 25.3 17.7 -2.5 16 12.2 W 28 46 15 25 1004.4 1004.4 0.0
30/03:00pm 25.7 18.4 -0.2 18 12.0 W 28 37 15 20 1003.9 1003.9 0.0
30/02:30pm 25.9 19.0 0.2 18 11.9 W 26 39 14 21 1003.7 1003.7 0.0
30/02:00pm 25.7 18.1 0.6 19 11.8 NW 30 48 16 26 1003.6 1003.6 0.0
30/01:53pm 25.4 18.5 2.6 22 11.0 NW 28 48 15 26 1003.7 1003.7 0.0
30/01:30pm 25.2 18.4 2.9 23 10.8 WNW 28 37 15 20 1004.0 1004.0 0.0
30/01:00pm 25.5 17.0 3.4 24 10.9 WNW 37 50 20 27 1004.3 1004.3 0.0
30/12:30pm 25.1 17.5 3.7 25 10.5 NW 33 46 18 25 1004.6 1004.6 0.0
30/12:00pm 24.3 16.4 2.5 24 10.5 WNW 33 43 18 23 1004.8 1004.8 0.0
30/11:30am 23.6 15.5 3.2 26 9.9 NW 35 44 19 24 1005.3 1005.3 0.0
30/11:00am 22.8 16.8 3.4 28 9.4 W 24 33 13 18 1005.8 1005.8 0.0
30/10:30am 22.3 15.7 4.4 31 8.8 WNW 28 35 15 19 1006.2 1006.2 0.0
30/10:00am 22.2 15.6 4.2 31 8.8 W 28 37 15 20 1006.6 1006.6 0.0
30/09:30am 21.1 15.2 3.9 32 8.3 W 24 35 13 19 1006.7 1006.7 0.0
30/09:00am 20.3 14.0 3.8 33 7.9 WSW 26 37 14 20 1007.0 1007.0 3.8
30/08:30am 20.0 12.5 4.2 35 7.6 WSW 33 46 18 25 1007.4 1007.4 3.8
30/08:00am 19.4 12.9 6.7 43 6.4 WSW 30 43 16 23 1007.5 1007.5 3.8
30/07:30am 19.0 14.0 11.1 60 4.3 WSW 28 37 15 20 1006.9 1006.9 3.8
30/07:00am 18.7 16.0 13.6 72 2.9 W 20 28 11 15 1006.9 1006.9 3.8
30/06:30am 18.5 18.6 15.6 83 1.7 W 9 13 5 7 1006.6 1006.6 3.8
30/06:00am 17.4 18.2 16.4 94 0.6 WNW 7 9 4 5 1006.0 1006.0 3.8
30/05:30am 17.5 19.4 16.7 95 0.5 NW 2 9 1 5 1005.9 1005.9 3.8
30/05:00am 17.3 18.2 16.5 95 0.5 NW 7 9 4 5 1005.6 1005.6 3.8
30/04:30am 17.5 18.0 16.5 94 0.6 NW 9 11 5 6 1005.3 1005.3 3.8
30/04:00am 17.6 18.1 16.6 94 0.6 NW 9 11 5 6 1005.3 1005.3 3.8
30/03:30am 17.7 17.1 16.7 94 0.6 NW 15 19 8 10 1005.7 1005.7 3.4
30/03:00am 17.5 17.6 16.5 94 0.6 NNW 11 17 6 9 1005.2 1005.2 2.8
30/02:38am 17.8 15.7 16.1 90 1.0 NW 22 30 12 16 1005.9 1005.9 0.6
30/02:30am 19.0 17.7 16.7 86 1.4 NNW 19 26 10 14 1005.3 1005.3 0.0
30/02:23am 19.0 18.2 16.2 84 1.7 NNW 15 22 8 12 1005.0 1005.0 0.0
30/02:00am 19.0 17.8 16.0 83 1.8 NNW 17 20 9 11 1005.4 1005.4 0.0
30/01:30am 18.4 16.4 15.5 83 1.7 N 20 26 11 14 1005.9 1005.9 0.0
30/01:00am 18.4 16.0 15.3 82 1.8 N 22 28 12 15 1006.3 1006.3 0.0
30/12:30am 18.7 15.0 15.1 79 2.1 N 28 37 15 20 1006.6 1006.6 0.0
30/12:00am 18.6 14.9 15.0 79 2.1 N 28 35 15 19 1006.6 1006.6 0.0
 
Date/Time
EST
Temp
°C
App
Temp
°C
Dew
Point
°C
Rel
Hum
%
Delta-T
°C
Wind Press
QNH
hPa
Press
MSL
hPa
Rain since
9am
mm
Dir  Spd
km/h
Gust
km/h
Spd
kts
Gust
kts
29/11:30pm 18.5 15.1 14.7 78 2.2 N 26 33 14 18 1007.1 1007.1 0.0
29/11:00pm 18.6 16.2 14.3 76 2.5 NNW 20 32 11 17 1007.3 1007.3 0.0
29/10:30pm 18.4 14.9 14.6 78 2.2 NNW 26 33 14 18 1007.5 1007.5 0.0
29/10:00pm 18.6 14.6 14.1 75 2.6 N 28 35 15 19 1007.4 1007.4 0.0
29/09:30pm 18.4 14.2 13.5 73 2.8 N 28 41 15 22 1007.6 1007.6 0.0
29/09:00pm 18.9 13.4 12.5 66 3.6 N 33 41 18 22 1007.3 1007.3 0.0
29/08:30pm 19.0 14.1 13.8 72 3.0 N 32 41 17 22 1007.5 1007.5 0.0
29/08:00pm 19.1 14.4 14.8 76 2.5 N 33 41 18 22 1007.6 1007.6 0.0
29/07:30pm 19.3 15.0 15.4 78 2.3 N 32 44 17 24 1007.4 1007.4 0.0
29/07:00pm 19.7 15.7 15.1 75 2.7 N 30 39 16 21 1007.0 1007.0 0.0
29/06:30pm 19.8 16.5 15.0 74 2.8 N 26 33 14 18 1006.8 1006.8 0.0
29/06:00pm 20.2 16.3 14.4 69 3.4 N 28 33 15 18 1007.0 1007.0 0.0
29/05:30pm 19.9 16.7 14.2 69 3.3 N 24 32 13 17 1006.7 1006.7 0.0
29/05:00pm 19.8 17.2 13.7 68 3.5 N 20 30 11 16 1006.5 1006.5 0.0
29/04:30pm 19.9 16.8 13.4 66 3.7 NNW 22 30 12 16 1006.5 1006.5 0.0
29/04:00pm 19.4 18.1 13.6 69 3.3 NW 13 17 7 9 1006.7 1006.7 0.0
29/03:30pm 20.0 16.4 13.0 64 4.0 NW 24 37 13 20 1006.8 1006.8 0.0
29/03:00pm 22.1 18.6 13.5 58 5.0 NNW 24 30 13 16 1006.4 1006.4 0.0
29/02:30pm 22.5 19.7 13.3 56 5.3 NNW 20 32 11 17 1006.5 1006.5 0.0
29/02:00pm 22.3 18.4 13.3 56 5.2 N 26 33 14 18 1006.9 1006.9 0.0
29/01:30pm 22.9 17.8 13.0 53 5.7 N 32 39 17 21 1006.7 1006.7 0.0
29/01:00pm 23.2 20.0 14.2 57 5.3 N 24 32 13 17 1007.4 1007.4 0.0
29/12:30pm 22.3 20.2 15.1 63 4.3 N 20 28 11 15 1008.0 1008.0 0.0
29/12:00pm 21.8 18.5 13.9 61 4.6 NNW 24 32 13 17 1008.2 1008.2 0.0
29/11:30am 22.8 18.4 11.6 49 6.3 N 26 32 14 17 1008.5 1008.5 0.0
29/11:00am 22.6 17.9 12.0 51 6.0 N 28 35 15 19 1008.2 1008.2 0.0
29/10:30am 22.6 17.7 12.6 53 5.7 N 30 37 16 20 1008.4 1008.4 0.0
29/10:00am 22.2 17.8 11.7 51 5.9 N 26 32 14 17 1009.0 1009.0 0.0
29/09:30am 22.3 18.2 12.7 54 5.5 N 26 32 14 17 1009.3 1009.3 0.0
29/09:00am 21.7 18.0 12.8 57 5.1 N 24 32 13 17 1009.3 1009.3 0.0
29/08:30am 20.8 17.8 12.7 59 4.6 N 20 26 11 14 1009.6 1009.6 0.0
29/08:00am 20.1 17.9 12.2 60 4.4 NNW 15 20 8 11 1009.9 1009.9 0.0
29/07:30am 19.4 17.1 14.0 71 3.1 N 19 24 10 13 1009.6 1009.6 0.0
29/07:00am 19.5 16.9 13.2 67 3.6 N 19 22 10 12 1009.6 1009.6 0.0
29/06:30am 19.5 17.1 12.8 65 3.8 N 17 22 9 12 1009.6 1009.6 0.0
29/06:00am 18.9 16.2 12.9 68 3.4 N 19 26 10 14 1009.4 1009.4 0.0
29/05:30am 18.3 16.2 13.7 74 2.6 N 17 22 9 12 1009.3 1009.3 0.0
29/05:00am 17.6 15.9 14.7 83 1.7 N 17 22 9 12 1009.2 1009.2 0.0
29/04:30am 17.2 15.1 14.8 86 1.4 N 19 24 10 13 1009.1 1009.1 0.0
29/04:00am 17.2 15.6 15.1 87 1.2 N 17 20 9 11 1009.3 1009.3 0.0
29/03:30am 17.3 16.5 15.1 87 1.3 N 13 13 7 7 1009.3 1009.3 0.0
29/03:00am 17.5 17.5 15.1 86 1.4 N 9 11 5 6 1009.3 1009.3 0.0
29/02:30am 17.1 17.6 15.6 91 0.9 NNW 7 9 4 5 1009.8 1009.8 0.0
29/02:00am 17.8 18.2 16.3 91 0.9 WNW 9 11 5 6 1010.3 1010.3 0.0
29/01:30am 18.9 19.3 17.3 90 1.0 NNE 11 13 6 7 1010.6 1010.6 0.0
29/01:00am 19.1 19.0 17.0 88 1.3 NE 13 17 7 9 1011.0 1011.0 0.0
29/12:30am 19.4 19.2 16.6 84 1.7 NE 13 15 7 8 1011.4 1011.4 0.0
29/12:00am 19.8 19.5 16.5 81 2.0 NE 13 17 7 9 1012.1 1012.1 0.0
 
Date/Time
EST
Temp
°C
App
Temp
°C
Dew
Point
°C
Rel
Hum
%
Delta-T
°C
Wind Press
QNH
hPa
Press
MSL
hPa
Rain since
9am
mm
Dir  Spd
km/h
Gust
km/h
Spd
kts
Gust
kts
28/11:30pm 19.9 19.6 16.4 80 2.1 NE 13 19 7 10 1012.4 1012.4 0.0
28/11:00pm 20.3 20.2 16.1 77 2.5 ENE 11 15 6 8 1012.4 1012.4 0.0
28/10:30pm 20.1 19.3 16.1 78 2.4 NE 15 20 8 11 1012.6 1012.6 0.0
28/10:00pm 20.0 18.7 15.8 77 2.5 NE 17 22 9 12 1012.8 1012.8 0.0
28/09:30pm 19.8 18.0 15.6 77 2.5 NE 19 24 10 13 1012.8 1012.8 0.0
28/09:00pm 19.6 17.8 15.5 77 2.4 NE 19 26 10 14 1012.9 1012.9 0.0
28/08:30pm 20.2 18.4 15.5 74 2.8 NE 19 28 10 15 1012.6 1012.6 0.0
28/08:00pm 20.0 18.9 15.4 75 2.7 NE 15 20 8 11 1012.2 1012.2 0.0
28/07:30pm 20.3 18.8 15.2 72 3.0 NE 17 24 9 13 1012.1 1012.1 0.0
28/07:00pm 20.3 18.5 15.6 74 2.8 NE 19 24 10 13 1012.4 1012.4 0.0

Latest Capital City Observations: Canberra | Sydney | Melbourne | Brisbane | Adelaide | Perth | Hobart | Darwin

Other Formats:

Comma delimited format used in spreadsheet applications
http://www.bom.gov.au/fwo/IDQ60901/IDQ60901.94578.axf

JavaScript Object Notation format (JSON) in row-major order
http://www.bom.gov.au/fwo/IDQ60901/IDQ60901.94578.json